nws-alerts: Checking more than four warning/county codes can delay the loading of your pages. You should use a cron job to get the data.
EllijayWeather Station Historical Data
Daily Summary for April 19, 2019 Units:  English    Metric   Both
Daily Weekly Monthly Yearly Custom
  High: Low: Average:
Temperature: 67.6 °F 43.2 °F 57.5 °F
Dew Point: 63.3 °F 41.9 °F 56.3 °F
Humidity: 99% 74% 96%
Wind Speed: 4.9mph 0.0mph 0.3mph
Wind Gust: 10.0mph - -
Wind- - SSE
Pressure: 29.80 in 29.41 in -
Precipitation: 3.66 in    
Historical Graphs
 
 
Tabular Data for April 19, 2019
Time Temperature Dew Point Pressure Wind Wind Speed Wind Gust Humidity Rainfall Rate (Hourly) solar
00:04 67.6 °F 59.0 °F 29.72 in Calm     74% 0.00 in meteobridge W/m2
00:09 66.6 °F 60.3 °F 29.75 in Calm     80% 0.02 in meteobridge W/m2
00:14 65.1 °F 60.1 °F 29.78 in SW 2.9 mph 10.0 mph 84% 0.03 in meteobridge W/m2
00:19 64.0 °F 59.7 °F 29.78 in Calm   2.0 mph 86% 0.05 in meteobridge W/m2
00:24 62.8 °F 59.2 °F 29.79 in South 0.9 mph 1.0 mph 88% 0.12 in meteobridge W/m2
00:29 61.7 °F 59.0 °F 29.80 in East 4.9 mph 5.0 mph 91% 0.20 in meteobridge W/m2
00:34 61.0 °F 58.6 °F 29.80 in Calm   2.0 mph 92% 0.27 in meteobridge W/m2
00:39 60.6 °F 58.3 °F 29.79 in Calm   5.0 mph 92% 0.36 in meteobridge W/m2
00:44 60.4 °F 58.5 °F 29.78 in Calm   2.0 mph 93% 0.43 in meteobridge W/m2
00:49 60.3 °F 58.5 °F 29.78 in Calm     94% 0.45 in meteobridge W/m2
00:54 60.1 °F 58.3 °F 29.78 in Calm     94% 0.47 in meteobridge W/m2
00:59 60.1 °F 58.3 °F 29.77 in Calm   2.0 mph 94% 0.49 in meteobridge W/m2
01:04 60.1 °F 58.6 °F 29.75 in Calm     95% 0.50 in meteobridge W/m2
01:09 60.3 °F 58.8 °F 29.74 in Calm     95% 0.49 in meteobridge W/m2
01:14 60.1 °F 58.6 °F 29.73 in Calm     95% 0.49 in meteobridge W/m2
01:19 60.1 °F 58.6 °F 29.70 in Calm   2.0 mph 95% 0.49 in meteobridge W/m2
01:24 59.9 °F 58.5 °F 29.70 in Calm   1.0 mph 95% 0.45 in meteobridge W/m2
01:29 59.9 °F 58.5 °F 29.71 in Calm     95% 0.39 in meteobridge W/m2
01:34 60.1 °F 59.0 °F 29.71 in Calm     96% 0.33 in meteobridge W/m2
01:39 60.1 °F 59.0 °F 29.71 in Calm     96% 0.25 in meteobridge W/m2
01:44 59.9 °F 58.8 °F 29.71 in Calm     96% 0.18 in meteobridge W/m2
01:49 59.9 °F 58.8 °F 29.71 in Calm     96% 0.16 in meteobridge W/m2
01:54 59.9 °F 58.8 °F 29.71 in Calm     96% 0.14 in meteobridge W/m2
01:59 59.9 °F 58.8 °F 29.70 in Calm     96% 0.12 in meteobridge W/m2
02:04 59.9 °F 58.8 °F 29.68 in Calm     96% 0.12 in meteobridge W/m2
02:09 59.7 °F 58.6 °F 29.67 in Calm   1.0 mph 96% 0.11 in meteobridge W/m2
02:14 59.7 °F 58.6 °F 29.67 in Calm     96% 0.10 in meteobridge W/m2
02:19 59.7 °F 58.6 °F 29.65 in Calm     96% 0.08 in meteobridge W/m2
02:24 59.7 °F 58.8 °F 29.65 in Calm     97% 0.05 in meteobridge W/m2
02:29 59.7 °F 58.8 °F 29.64 in Calm     97% 0.03 in meteobridge W/m2
02:34 59.5 °F 58.5 °F 29.63 in Calm     96% 0.02 in meteobridge W/m2
02:39 59.5 °F 58.5 °F 29.63 in Calm     96% 0.01 in meteobridge W/m2
02:44 59.5 °F 58.6 °F 29.62 in Calm     97% 0.01 in meteobridge W/m2
02:49 59.5 °F 58.6 °F 29.62 in Calm     97% 0.01 in meteobridge W/m2
02:54 59.5 °F 58.6 °F 29.61 in Calm     97% 0.01 in meteobridge W/m2
02:59 59.5 °F 58.6 °F 29.60 in Calm     97% 0.01 in meteobridge W/m2
03:04 59.5 °F 58.6 °F 29.61 in Calm     97% 0.00 in meteobridge W/m2
03:09 59.5 °F 58.6 °F 29.61 in Calm     97% 0.00 in meteobridge W/m2
03:14 59.5 °F 58.6 °F 29.62 in Calm     97% 0.01 in meteobridge W/m2
03:19 59.5 °F 58.6 °F 29.62 in Calm     97% 0.03 in meteobridge W/m2
03:24 59.5 °F 58.6 °F 29.61 in Calm     97% 0.07 in meteobridge W/m2
03:29 59.5 °F 58.6 °F 29.61 in Calm     97% 0.10 in meteobridge W/m2
03:34 59.5 °F 58.6 °F 29.60 in Calm     97% 0.11 in meteobridge W/m2
03:39 59.5 °F 58.6 °F 29.60 in Calm     97% 0.13 in meteobridge W/m2
03:44 59.5 °F 58.6 °F 29.59 in Calm     97% 0.16 in meteobridge W/m2
03:49 59.5 °F 58.6 °F 29.60 in Calm     97% 0.19 in meteobridge W/m2
03:54 59.5 °F 58.6 °F 29.59 in Calm     97% 0.23 in meteobridge W/m2
03:59 59.5 °F 58.6 °F 29.58 in Calm     97% 0.28 in meteobridge W/m2
04:04 59.5 °F 59.0 °F 29.60 in Calm     98% 0.35 in meteobridge W/m2
04:09 59.5 °F 59.0 °F 29.62 in East 2.0 mph 2.0 mph 98% 0.42 in meteobridge W/m2
04:14 59.5 °F 59.0 °F 29.58 in SE 4.0 mph 6.0 mph 98% 0.48 in meteobridge W/m2
04:19 59.5 °F 59.0 °F 29.57 in SSE 4.0 mph 4.0 mph 98% 0.54 in meteobridge W/m2
04:24 60.1 °F 59.5 °F 29.57 in SE 2.0 mph 8.0 mph 98% 0.59 in meteobridge W/m2
04:29 60.1 °F 59.5 °F 29.58 in WNW 4.0 mph 5.0 mph 98% 0.64 in meteobridge W/m2
04:34 60.1 °F 59.5 °F 29.57 in ESE 4.0 mph 4.0 mph 98% 0.72 in meteobridge W/m2
04:39 59.9 °F 59.0 °F 29.55 in Calm   3.0 mph 97% 0.78 in meteobridge W/m2
04:44 59.9 °F 59.4 °F 29.58 in Calm   1.0 mph 98% 0.85 in meteobridge W/m2
04:49 60.1 °F 59.5 °F 29.56 in Calm     98% 0.90 in meteobridge W/m2
04:54 59.9 °F 59.4 °F 29.56 in SE 2.0 mph 4.0 mph 98% 0.94 in meteobridge W/m2
04:59 59.9 °F 59.4 °F 29.58 in Calm   1.0 mph 98% 0.98 in meteobridge W/m2
05:04 59.7 °F 59.2 °F 29.54 in Calm   5.0 mph 98% 1.01 in meteobridge W/m2
05:09 59.7 °F 59.2 °F 29.56 in Calm   1.0 mph 98% 1.01 in meteobridge W/m2
05:14 59.9 °F 59.4 °F 29.57 in Calm     98% 1.03 in meteobridge W/m2
05:19 59.9 °F 59.4 °F 29.58 in Calm     98% 1.00 in meteobridge W/m2
05:24 59.9 °F 59.4 °F 29.56 in Calm   2.0 mph 98% 1.00 in meteobridge W/m2
05:29 59.7 °F 59.2 °F 29.55 in ESE 0.9 mph 1.0 mph 98% 1.01 in meteobridge W/m2
05:34 59.7 °F 59.2 °F 29.54 in Calm   2.0 mph 98% 0.97 in meteobridge W/m2
05:39 59.7 °F 59.2 °F 29.54 in Calm   4.0 mph 98% 0.97 in meteobridge W/m2
05:44 59.9 °F 59.4 °F 29.52 in Calm   5.0 mph 98% 0.92 in meteobridge W/m2
05:49 59.9 °F 59.4 °F 29.51 in SE 2.0 mph 4.0 mph 98% 0.89 in meteobridge W/m2
05:54 60.1 °F 59.5 °F 29.52 in Calm     98% 0.84 in meteobridge W/m2
05:59 60.3 °F 59.7 °F 29.52 in SE 2.0 mph 2.0 mph 98% 0.80 in meteobridge W/m2
06:04 60.4 °F 59.9 °F 29.51 in SE 2.0 mph 4.0 mph 98% 0.74 in meteobridge W/m2
06:09 60.4 °F 59.9 °F 29.52 in Calm     98% 0.67 in meteobridge W/m2
06:14 60.8 °F 60.4 °F 29.52 in Calm     99% 0.61 in meteobridge W/m2
06:19 60.8 °F 60.3 °F 29.52 in Calm     98% 0.56 in meteobridge W/m2
06:24 61.0 °F 60.4 °F 29.53 in Calm     98% 0.51 in meteobridge W/m2
06:29 61.2 °F 60.6 °F 29.53 in Calm     98% 0.46 in meteobridge W/m2
06:34 61.3 °F 60.8 °F 29.53 in Calm     98% 0.41 in meteobridge W/m2
06:39 61.5 °F 61.2 °F 29.52 in Calm   1.0 mph 99% 0.34 in meteobridge W/m2
06:44 61.9 °F 61.5 °F 29.53 in Calm   2.0 mph 99% 0.31 in meteobridge W/m2
06:49 61.9 °F 61.3 °F 29.52 in ESE 4.0 mph 9.0 mph 98% 0.26 in meteobridge W/m2
06:54 61.9 °F 61.3 °F 29.52 in Calm   5.0 mph 98% 0.24 in meteobridge W/m2
06:59 61.9 °F 61.3 °F 29.52 in ESE 0.9 mph 2.0 mph 98% 0.22 in meteobridge W/m2
07:04 61.9 °F 61.3 °F 29.52 in Calm   1.0 mph 98% 0.20 in meteobridge W/m2
07:09 61.7 °F 61.2 °F 29.52 in Calm   4.0 mph 98% 0.19 in meteobridge W/m2
07:14 61.5 °F 61.0 °F 29.52 in ESE 4.0 mph 6.0 mph 98% 0.19 in meteobridge W/m2
07:19 61.5 °F 60.6 °F 29.51 in ESE 2.0 mph 2.0 mph 97% 0.19 in meteobridge W/m2
07:24 61.3 °F 60.8 °F 29.51 in Calm   1.0 mph 98% 0.18 in meteobridge W/m2
07:29 61.3 °F 60.8 °F 29.50 in ESE 0.9 mph 4.0 mph 98% 0.18 in meteobridge W/m2
07:34 61.2 °F 60.6 °F 29.51 in Calm   2.0 mph 98% 0.17 in meteobridge W/m2
07:39 61.2 °F 60.3 °F 29.50 in Calm   5.0 mph 97% 0.17 in meteobridge W/m2
07:44 61.0 °F 60.1 °F 29.50 in ESE 0.9 mph 1.0 mph 97% 0.17 in meteobridge W/m2
07:49 60.8 °F 59.9 °F 29.50 in Calm     97% 0.16 in meteobridge W/m2
07:54 60.6 °F 59.7 °F 29.50 in Calm     97% 0.14 in meteobridge W/m2
07:59 60.4 °F 59.5 °F 29.50 in ESE 0.9 mph 5.0 mph 97% 0.13 in meteobridge W/m2
08:04 60.3 °F 59.4 °F 29.51 in Calm     97% 0.12 in meteobridge W/m2
08:09 60.3 °F 59.4 °F 29.50 in Calm     97% 0.12 in meteobridge W/m2
08:14 60.1 °F 59.5 °F 29.51 in Calm     98% 0.11 in meteobridge W/m2
08:19 60.1 °F 59.2 °F 29.51 in Calm   1.0 mph 97% 0.11 in meteobridge W/m2
08:24 59.9 °F 59.0 °F 29.51 in Calm     97% 0.10 in meteobridge W/m2
08:29 59.7 °F 58.8 °F 29.49 in Calm     97% 0.10 in meteobridge W/m2
08:34 59.7 °F 58.8 °F 29.49 in Calm     97% 0.10 in meteobridge W/m2
08:39 59.5 °F 59.0 °F 29.49 in Calm   1.0 mph 98% 0.10 in meteobridge W/m2
08:44 59.5 °F 59.0 °F 29.49 in Calm     98% 0.09 in meteobridge W/m2
08:49 59.5 °F 59.0 °F 29.52 in Calm     98% 0.10 in meteobridge W/m2
08:54 59.4 °F 58.8 °F 29.51 in Calm     98% 0.12 in meteobridge W/m2
08:59 59.4 °F 58.8 °F 29.49 in Calm   5.0 mph 98% 0.14 in meteobridge W/m2
09:04 59.4 °F 58.8 °F 29.48 in Calm   2.0 mph 98% 0.16 in meteobridge W/m2
09:09 59.2 °F 58.6 °F 29.48 in Calm     98% 0.15 in meteobridge W/m2
09:14 59.2 °F 58.6 °F 29.48 in Calm   1.0 mph 98% 0.15 in meteobridge W/m2
09:19 59.4 °F 58.8 °F 29.48 in Calm     98% 0.15 in meteobridge W/m2
09:24 59.2 °F 58.6 °F 29.48 in Calm     98% 0.15 in meteobridge W/m2
09:29 59.2 °F 58.6 °F 29.49 in Calm     98% 0.14 in meteobridge W/m2
09:34 59.2 °F 58.6 °F 29.49 in Calm   1.0 mph 98% 0.14 in meteobridge W/m2
09:39 59.2 °F 58.6 °F 29.50 in Calm     98% 0.14 in meteobridge W/m2
09:44 59.2 °F 58.6 °F 29.49 in Calm     98% 0.15 in meteobridge W/m2
09:49 59.2 °F 58.6 °F 29.49 in Calm   2.0 mph 98% 0.15 in meteobridge W/m2
09:54 59.0 °F 58.5 °F 29.49 in Calm   2.0 mph 98% 0.15 in meteobridge W/m2
09:59 59.0 °F 58.5 °F 29.49 in Calm     98% 0.14 in meteobridge W/m2
10:04 59.0 °F 58.5 °F 29.48 in Calm     98% 0.13 in meteobridge W/m2
10:09 59.0 °F 58.5 °F 29.48 in Calm     98% 0.15 in meteobridge W/m2
10:14 59.0 °F 58.5 °F 29.48 in Calm     98% 0.15 in meteobridge W/m2
10:19 59.0 °F 58.5 °F 29.48 in Calm     98% 0.15 in meteobridge W/m2
10:24 59.2 °F 58.6 °F 29.47 in Calm     98% 0.16 in meteobridge W/m2
10:29 59.2 °F 58.6 °F 29.47 in Calm     98% 0.17 in meteobridge W/m2
10:34 59.2 °F 58.6 °F 29.47 in Calm     98% 0.17 in meteobridge W/m2
10:39 59.4 °F 58.8 °F 29.47 in Calm     98% 0.17 in meteobridge W/m2
10:44 59.4 °F 59.0 °F 29.47 in Calm     99% 0.16 in meteobridge W/m2
10:49 59.4 °F 58.8 °F 29.47 in Calm     98% 0.16 in meteobridge W/m2
10:54 59.4 °F 58.8 °F 29.47 in Calm     98% 0.14 in meteobridge W/m2
10:59 59.5 °F 59.2 °F 29.47 in Calm   4.0 mph 99% 0.13 in meteobridge W/m2
11:04 59.5 °F 59.2 °F 29.47 in Calm     99% 0.13 in meteobridge W/m2
11:09 59.5 °F 59.2 °F 29.47 in Calm     99% 0.11 in meteobridge W/m2
11:14 59.5 °F 59.2 °F 29.47 in Calm     99% 0.11 in meteobridge W/m2
11:19 59.7 °F 59.4 °F 29.47 in Calm     99% 0.10 in meteobridge W/m2
11:24 59.9 °F 59.5 °F 29.47 in Calm     99% 0.09 in meteobridge W/m2
11:29 60.1 °F 59.7 °F 29.47 in Calm     99% 0.09 in meteobridge W/m2
11:34 60.4 °F 60.1 °F 29.47 in Calm     99% 0.08 in meteobridge W/m2
11:39 60.4 °F 60.1 °F 29.46 in Calm     99% 0.08 in meteobridge W/m2
11:44 60.6 °F 60.3 °F 29.46 in Calm     99% 0.08 in meteobridge W/m2
11:49 61.0 °F 60.6 °F 29.46 in Calm     99% 0.07 in meteobridge W/m2
11:54 61.0 °F 60.6 °F 29.46 in Calm     99% 0.07 in meteobridge W/m2
11:59 61.0 °F 60.6 °F 29.47 in Calm     99% 0.07 in meteobridge W/m2
12:04 61.0 °F 60.6 °F 29.47 in Calm     99% 0.06 in meteobridge W/m2
12:09 61.0 °F 60.6 °F 29.46 in Calm     99% 0.07 in meteobridge W/m2
12:14 61.0 °F 60.6 °F 29.46 in Calm     99% 0.06 in meteobridge W/m2
12:19 61.2 °F 60.8 °F 29.46 in Calm     99% 0.05 in meteobridge W/m2
12:24 61.5 °F 61.2 °F 29.45 in Calm     99% 0.05 in meteobridge W/m2
12:29 61.9 °F 61.5 °F 29.45 in Calm     99% 0.04 in meteobridge W/m2
12:34 62.1 °F 61.7 °F 29.45 in Calm     99% 0.04 in meteobridge W/m2
12:39 62.1 °F 61.7 °F 29.45 in Calm     99% 0.03 in meteobridge W/m2
12:44 62.2 °F 61.9 °F 29.44 in Calm     99% 0.02 in meteobridge W/m2
12:49 62.2 °F 61.9 °F 29.44 in Calm     99% 0.02 in meteobridge W/m2
12:54 62.6 °F 62.2 °F 29.43 in Calm     99% 0.02 in meteobridge W/m2
12:59 62.8 °F 62.4 °F 29.43 in Calm     99% 0.01 in meteobridge W/m2
13:04 63.0 °F 62.6 °F 29.43 in Calm     99% 0.01 in meteobridge W/m2
13:09 63.1 °F 62.8 °F 29.43 in Calm     99% 0.00 in meteobridge W/m2
13:14 63.7 °F 63.3 °F 29.43 in Calm     99% 0.00 in meteobridge W/m2
13:19 63.7 °F 63.1 °F 29.43 in Calm     98% 0.00 in meteobridge W/m2
13:24 63.9 °F 63.3 °F 29.43 in Calm     98% 0.00 in meteobridge W/m2
13:29 63.7 °F 62.8 °F 29.43 in Calm     97% 0.00 in meteobridge W/m2
13:34 63.5 °F 62.4 °F 29.42 in Calm     96% 0.00 in meteobridge W/m2
13:39 63.3 °F 62.2 °F 29.42 in Calm     96% 0.00 in meteobridge W/m2
13:44 63.3 °F 62.4 °F 29.42 in Calm   1.0 mph 97% 0.00 in meteobridge W/m2
13:49 63.3 °F 62.2 °F 29.42 in Calm     96% 0.00 in meteobridge W/m2
13:54 63.7 °F 62.8 °F 29.41 in Calm     97% 0.00 in meteobridge W/m2
13:59 64.0 °F 63.1 °F 29.41 in Calm   3.0 mph 97% 0.00 in meteobridge W/m2
14:04 64.0 °F 63.0 °F 29.41 in Calm     96% 0.00 in meteobridge W/m2
14:09 63.9 °F 62.4 °F 29.41 in Calm     95% 0.00 in meteobridge W/m2
14:14 64.0 °F 63.0 °F 29.41 in SSE 4.0 mph 5.0 mph 96% 0.00 in meteobridge W/m2
14:19 64.0 °F 62.1 °F 29.41 in Calm   1.0 mph 93% 0.00 in meteobridge W/m2
14:24 63.9 °F 62.1 °F 29.42 in West 4.0 mph 6.0 mph 94% 0.00 in meteobridge W/m2
14:29 63.5 °F 61.2 °F 29.42 in ENE 0.9 mph 4.0 mph 92% 0.00 in meteobridge W/m2
14:34 63.5 °F 61.5 °F 29.41 in Calm   2.0 mph 93% 0.00 in meteobridge W/m2
14:39 63.7 °F 61.3 °F 29.41 in Calm   3.0 mph 92% 0.00 in meteobridge W/m2
14:44 63.9 °F 61.2 °F 29.41 in Calm   1.0 mph 91% 0.00 in meteobridge W/m2
14:49 64.2 °F 61.2 °F 29.41 in Calm     90% 0.00 in meteobridge W/m2
14:54 64.6 °F 61.0 °F 29.41 in Calm     88% 0.00 in meteobridge W/m2
14:59 64.6 °F 60.6 °F 29.41 in Calm   3.0 mph 87% 0.00 in meteobridge W/m2
15:04 64.4 °F 59.7 °F 29.41 in Calm     85% 0.00 in meteobridge W/m2
15:09 64.2 °F 61.0 °F 29.41 in NNW 0.9 mph 4.0 mph 89% 0.00 in meteobridge W/m2
15:14 63.9 °F 59.5 °F 29.41 in Calm     86% 0.00 in meteobridge W/m2
15:19 63.3 °F 59.0 °F 29.41 in Calm   9.0 mph 86% 0.00 in meteobridge W/m2
15:24 62.4 °F 59.2 °F 29.42 in Calm   4.0 mph 89% 0.00 in meteobridge W/m2
15:29 61.5 °F 58.8 °F 29.42 in Calm   2.0 mph 91% 0.01 in meteobridge W/m2
15:34 61.2 °F 59.2 °F 29.42 in Calm   3.0 mph 93% 0.01 in meteobridge W/m2
15:39 60.8 °F 59.0 °F 29.43 in Calm   1.0 mph 94% 0.02 in meteobridge W/m2
15:44 60.6 °F 58.8 °F 29.43 in Calm   2.0 mph 94% 0.02 in meteobridge W/m2
15:49 60.3 °F 58.3 °F 29.43 in Calm   1.0 mph 93% 0.03 in meteobridge W/m2
15:54 59.9 °F 58.1 °F 29.43 in Calm   1.0 mph 94% 0.03 in meteobridge W/m2
15:59 59.7 °F 58.3 °F 29.43 in East 4.9 mph 5.0 mph 95% 0.03 in meteobridge W/m2
16:04 59.4 °F 57.9 °F 29.43 in Calm     95% 0.03 in meteobridge W/m2
16:09 59.4 °F 57.9 °F 29.43 in Calm     95% 0.03 in meteobridge W/m2
16:14 59.4 °F 57.9 °F 29.43 in Calm   1.0 mph 95% 0.03 in meteobridge W/m2
16:18 59.2 °F 57.7 °F 29.43 in Calm     95% 0.03 in meteobridge W/m2
16:24 59.2 °F 57.7 °F 29.43 in Calm     95% 0.03 in meteobridge W/m2
16:29 59.0 °F 57.2 °F 29.44 in SSE 2.0 mph 4.0 mph 94% 0.02 in meteobridge W/m2
16:34 58.8 °F 56.8 °F 29.44 in SW 0.9 mph 4.0 mph 93% 0.02 in meteobridge W/m2
16:39 58.5 °F 56.1 °F 29.44 in Calm   4.0 mph 92% 0.01 in meteobridge W/m2
16:44 58.3 °F 56.3 °F 29.44 in Calm     93% 0.01 in meteobridge W/m2
16:49 57.9 °F 55.9 °F 29.44 in Calm     93% 0.00 in meteobridge W/m2
16:54 57.9 °F 55.9 °F 29.44 in Calm     93% 0.00 in meteobridge W/m2
16:59 57.7 °F 55.8 °F 29.44 in Calm   4.0 mph 93% 0.00 in meteobridge W/m2
17:04 57.6 °F 55.6 °F 29.45 in Calm     93% 0.00 in meteobridge W/m2
17:08 57.2 °F 54.9 °F 29.45 in Calm   4.0 mph 92% 0.00 in meteobridge W/m2
17:14 56.8 °F 54.9 °F 29.46 in Calm     93% 0.00 in meteobridge W/m2
17:19 56.5 °F 54.5 °F 29.46 in Calm     93% 0.00 in meteobridge W/m2
17:24 56.1 °F 54.1 °F 29.45 in ESE 0.9 mph 1.0 mph 93% 0.00 in meteobridge W/m2
17:29 56.1 °F 54.1 °F 29.44 in Calm   2.0 mph 93% 0.00 in meteobridge W/m2
17:34 56.1 °F 54.5 °F 29.45 in Calm     94% 0.00 in meteobridge W/m2
17:39 56.1 °F 54.5 °F 29.45 in Calm     94% 0.00 in meteobridge W/m2
17:44 55.9 °F 54.3 °F 29.45 in Calm   2.0 mph 94% 0.00 in meteobridge W/m2
17:49 55.9 °F 54.3 °F 29.46 in Calm   1.0 mph 94% 0.00 in meteobridge W/m2
17:54 55.8 °F 53.8 °F 29.47 in Calm     93% 0.00 in meteobridge W/m2
17:59 55.0 °F 52.2 °F 29.47 in Calm   5.0 mph 90% 0.00 in meteobridge W/m2
18:04 54.5 °F 51.6 °F 29.47 in Calm   2.0 mph 90% 0.00 in meteobridge W/m2
18:09 54.0 °F 52.0 °F 29.47 in Calm   3.0 mph 93% 0.00 in meteobridge W/m2
18:14 53.8 °F 52.2 °F 29.48 in Calm     94% 0.01 in meteobridge W/m2
18:19 53.6 °F 51.6 °F 29.48 in Calm   1.0 mph 93% 0.01 in meteobridge W/m2
18:24 53.4 °F 51.8 °F 29.48 in Calm     94% 0.01 in meteobridge W/m2
18:29 53.2 °F 51.6 °F 29.48 in West 2.0 mph 5.0 mph 94% 0.01 in meteobridge W/m2
18:34 52.9 °F 51.3 °F 29.48 in ESE 0.9 mph 6.0 mph 94% 0.01 in meteobridge W/m2
18:39 52.5 °F 50.9 °F 29.48 in Calm   10.0 mph 94% 0.01 in meteobridge W/m2
18:44 52.3 °F 50.9 °F 29.48 in Calm   6.0 mph 95% 0.01 in meteobridge W/m2
18:49 52.3 °F 50.7 °F 29.48 in Calm     94% 0.01 in meteobridge W/m2
18:54 52.3 °F 50.7 °F 29.48 in Calm   2.0 mph 94% 0.01 in meteobridge W/m2
18:59 52.2 °F 50.5 °F 29.48 in Calm     94% 0.01 in meteobridge W/m2
19:04 52.2 °F 50.7 °F 29.49 in Calm   1.0 mph 95% 0.01 in meteobridge W/m2
19:09 52.2 °F 50.7 °F 29.49 in Calm     95% 0.01 in meteobridge W/m2
19:14 52.2 °F 50.7 °F 29.49 in Calm     95% 0.00 in meteobridge W/m2
19:19 52.2 °F 50.7 °F 29.49 in Calm     95% 0.00 in meteobridge W/m2
19:24 52.2 °F 50.7 °F 29.49 in Calm     95% 0.00 in meteobridge W/m2
19:29 52.2 °F 50.7 °F 29.50 in SE 0.9 mph 1.0 mph 95% 0.01 in meteobridge W/m2
19:34 51.8 °F 50.4 °F 29.50 in Calm     95% 0.02 in meteobridge W/m2
19:39 51.4 °F 50.0 °F 29.50 in WNW 2.0 mph 4.0 mph 95% 0.03 in meteobridge W/m2
19:44 51.3 °F 49.8 °F 29.51 in Calm     95% 0.04 in meteobridge W/m2
19:49 50.9 °F 49.8 °F 29.51 in Calm   5.0 mph 96% 0.05 in meteobridge W/m2
19:54 50.5 °F 49.1 °F 29.51 in Calm   1.0 mph 95% 0.06 in meteobridge W/m2
19:59 50.4 °F 48.9 °F 29.52 in Calm     95% 0.06 in meteobridge W/m2
20:04 50.2 °F 49.1 °F 29.52 in Calm   4.0 mph 96% 0.06 in meteobridge W/m2
20:09 49.8 °F 48.7 °F 29.52 in Calm     96% 0.07 in meteobridge W/m2
20:14 49.6 °F 48.6 °F 29.52 in NW 2.0 mph 4.0 mph 96% 0.07 in meteobridge W/m2
20:19 49.5 °F 48.4 °F 29.53 in Calm   7.0 mph 96% 0.07 in meteobridge W/m2
20:24 49.3 °F 48.2 °F 29.53 in Calm   2.0 mph 96% 0.07 in meteobridge W/m2
20:29 49.3 °F 48.2 °F 29.53 in Calm   1.0 mph 96% 0.06 in meteobridge W/m2
20:34 48.9 °F 47.8 °F 29.54 in Calm     96% 0.05 in meteobridge W/m2
20:39 48.7 °F 47.7 °F 29.54 in NW 2.9 mph 3.0 mph 96% 0.04 in meteobridge W/m2
20:44 48.7 °F 47.7 °F 29.54 in Calm   2.0 mph 96% 0.03 in meteobridge W/m2
20:49 48.7 °F 47.8 °F 29.55 in Calm   1.0 mph 97% 0.02 in meteobridge W/m2
20:54 48.6 °F 47.5 °F 29.55 in Calm     96% 0.01 in meteobridge W/m2
20:59 48.6 °F 47.5 °F 29.55 in Calm   4.0 mph 96% 0.01 in meteobridge W/m2
21:04 48.4 °F 47.3 °F 29.55 in Calm   2.0 mph 96% 0.01 in meteobridge W/m2
21:09 48.2 °F 47.1 °F 29.56 in Calm   1.0 mph 96% 0.00 in meteobridge W/m2
21:14 48.0 °F 46.9 °F 29.56 in East 0.9 mph 5.0 mph 96% 0.01 in meteobridge W/m2
21:19 47.8 °F 46.8 °F 29.56 in Calm   2.0 mph 96% 0.01 in meteobridge W/m2
21:24 47.7 °F 46.6 °F 29.56 in Calm     96% 0.01 in meteobridge W/m2
21:29 47.5 °F 46.4 °F 29.57 in Calm   1.0 mph 96% 0.01 in meteobridge W/m2
21:34 47.1 °F 46.0 °F 29.57 in Calm   4.0 mph 96% 0.01 in meteobridge W/m2
21:39 47.1 °F 46.0 °F 29.57 in Calm   6.0 mph 96% 0.01 in meteobridge W/m2
21:44 46.9 °F 45.9 °F 29.57 in Calm   2.0 mph 96% 0.01 in meteobridge W/m2
21:49 46.8 °F 45.7 °F 29.57 in Calm   6.0 mph 96% 0.01 in meteobridge W/m2
21:54 46.8 °F 46.0 °F 29.58 in Calm     97% 0.01 in meteobridge W/m2
21:58 46.8 °F 45.7 °F 29.58 in Calm   2.0 mph 96% 0.01 in meteobridge W/m2
22:04 46.6 °F 45.5 °F 29.58 in North 0.9 mph 1.0 mph 96% 0.01 in meteobridge W/m2
22:09 46.6 °F 45.5 °F 29.58 in Calm   1.0 mph 96% 0.01 in meteobridge W/m2
22:14 46.4 °F 45.3 °F 29.59 in Calm     96% 0.00 in meteobridge W/m2
22:19 46.2 °F 45.1 °F 29.59 in Calm   4.0 mph 96% 0.00 in meteobridge W/m2
22:24 46.0 °F 45.0 °F 29.59 in NNW 0.9 mph 4.0 mph 96% 0.00 in meteobridge W/m2
22:29 46.0 °F 45.0 °F 29.59 in Calm   1.0 mph 96% 0.00 in meteobridge W/m2
22:34 45.9 °F 44.8 °F 29.59 in Calm   2.0 mph 96% 0.00 in meteobridge W/m2
22:39 45.7 °F 44.6 °F 29.59 in Calm     96% 0.01 in meteobridge W/m2
22:44 45.5 °F 44.4 °F 29.59 in Calm     96% 0.01 in meteobridge W/m2
22:49 45.5 °F 44.4 °F 29.59 in Calm   5.0 mph 96% 0.01 in meteobridge W/m2
22:54 45.3 °F 44.2 °F 29.60 in Calm     96% 0.01 in meteobridge W/m2
22:59 45.0 °F 43.7 °F 29.60 in Calm   1.0 mph 95% 0.01 in meteobridge W/m2
23:04 44.8 °F 43.5 °F 29.60 in Calm     95% 0.01 in meteobridge W/m2
23:09 44.8 °F 43.7 °F 29.60 in Calm   3.0 mph 96% 0.01 in meteobridge W/m2
23:14 44.6 °F 43.5 °F 29.60 in NNW 2.9 mph 3.0 mph 96% 0.01 in meteobridge W/m2
23:19 44.4 °F 43.3 °F 29.60 in Calm   3.0 mph 96% 0.01 in meteobridge W/m2
23:24 44.2 °F 43.2 °F 29.60 in Calm     96% 0.01 in meteobridge W/m2
23:29 44.2 °F 43.0 °F 29.60 in Calm   1.0 mph 95% 0.01 in meteobridge W/m2
23:34 44.1 °F 43.0 °F 29.61 in Calm   1.0 mph 96% 0.01 in meteobridge W/m2
23:39 43.9 °F 42.8 °F 29.61 in Calm   1.0 mph 96% 0.00 in meteobridge W/m2
23:44 43.5 °F 42.3 °F 29.61 in Calm     95% 0.00 in meteobridge W/m2
23:49 43.5 °F 42.3 °F 29.61 in Calm   1.0 mph 95% 0.00 in meteobridge W/m2
23:54 43.3 °F 42.1 °F 29.61 in Calm     95% 0.00 in meteobridge W/m2
23:59 43.2 °F 41.9 °F 29.62 in Calm     95% 0.00 in meteobridge W/m2
EllijayWeather
Compliments of Weather Underground - 2.5 mb